Time;durP1;ratioP1;P1;durP2;ratioP2;P2;SDS_P1;SDS_P2;PMS_P1;PMS_P2;Temp;Humidity;BMP_temperature;BMP_pressure;BME280_temperature;BME280_humidity;BME280_pressure;Samples;Min_cycle;Max_cycle;Signal;HPM_P1;HPM_P2
2024/03/22 00:01:58;;;;;;;;;;;11.70;99.90;;;11.77;69.72;101003.25;5066612;28;19940;-84
2024/03/22 00:04:24;;;;;;;;;;;11.60;99.90;;;11.80;69.95;101000.16;5084676;28;19970;-84
2024/03/22 00:06:51;;;;;;;;;;;11.60;99.90;;;11.80;69.95;101000.16;5084477;28;19928;-84
2024/03/22 00:09:17;;;;;;;;;;;11.60;99.90;;;11.76;69.99;100999.75;5115324;28;19924;-84
2024/03/22 00:11:45;;;;;;;;;;;11.60;99.90;;;11.76;70.14;101001.59;5122700;28;19931;-84
2024/03/22 00:14:11;;;;;;;;;;;11.60;99.90;;;11.84;70.13;100988.06;5107630;28;19924;-84
2024/03/22 00:16:40;;;;;;;;;;;11.60;99.90;;;11.85;70.11;100987.84;5067197;28;19946;-84
2024/03/22 00:19:06;;;;;;;;;;;11.70;99.90;;;11.91;69.89;100986.22;5094407;28;19924;-84
2024/03/22 00:21:34;;;;;;;;;;;11.70;99.90;;;11.89;70.12;100982.09;5121283;28;19931;-83
2024/03/22 00:24:01;;;;;;;;;;;11.70;99.90;;;11.94;70.33;100982.28;5123150;28;20386;-83
2024/03/22 00:26:29;;;;;;;;;;;11.70;99.90;;;11.93;70.41;100983.31;5121544;28;20014;-84
2024/03/22 00:28:57;;;;;;;;;;;11.70;99.90;;;11.94;70.32;100979.63;5104244;28;19959;-84
2024/03/22 00:31:25;;;;;;;;;;;11.70;99.90;;;11.94;70.28;100972.41;5085869;28;19931;-84
2024/03/22 00:33:52;;;;;;;;;;;11.70;99.90;;;11.96;70.35;100959.69;5112896;28;19923;-84
2024/03/22 00:36:20;;;;;;;;;;;11.70;99.90;;;11.96;70.29;100967.72;5120003;28;19925;-84
2024/03/22 00:38:47;;;;;;;;;;;11.80;99.90;;;11.89;70.29;100960.72;5121056;28;19931;-84
2024/03/22 00:41:14;;;;;;;;;;;11.80;99.90;;;11.87;70.63;100962.78;5112461;28;20379;-84
2024/03/22 00:43:41;;;;;;;;;;;11.70;99.90;;;11.87;70.60;100960.09;5102558;28;19964;-84
2024/03/22 00:46:08;;;;;;;;;;;11.70;99.90;;;11.92;70.71;100949.63;5110564;28;19964;-84
2024/03/22 00:48:35;;;;;;;;;;;11.80;99.90;;;11.95;70.78;100949.19;5152518;27;19989;-84
2024/03/22 00:51:04;;;;;;;;;;;11.80;99.90;;;11.96;70.85;100943.66;5120222;28;19931;-84
2024/03/22 00:53:30;;;;;;;;;;;11.70;99.90;;;11.88;71.26;100937.69;5104827;28;19949;-84
2024/03/22 00:55:59;;;;;;;;;;;11.70;99.90;;;11.89;71.14;100933.97;5122393;28;19966;-84
2024/03/22 00:58:26;;;;;;;;;;;11.80;99.90;;;11.89;71.42;100937.47;5119703;28;19924;-84
2024/03/22 01:00:54;;;;;;;;;;;11.80;99.90;;;11.94;71.01;100934.19;5110614;28;20417;-84
2024/03/22 01:03:20;;;;;;;;;;;11.80;99.90;;;11.92;71.20;100922.88;5100303;28;20019;-84
2024/03/22 01:05:47;;;;;;;;;;;11.80;99.90;;;11.97;71.14;100925.75;5108003;28;19930;-84
2024/03/22 01:08:15;;;;;;;;;;;11.80;99.90;;;11.96;71.20;100919.59;5109070;28;19932;-83
2024/03/22 01:10:42;;;;;;;;;;;11.80;99.90;;;11.97;70.93;100926.56;5154587;27;19935;-84
2024/03/22 01:13:09;;;;;;;;;;;11.80;99.90;;;11.88;71.57;100910.97;5106640;28;20022;-84
2024/03/22 01:15:37;;;;;;;;;;;11.80;99.90;;;11.83;71.67;100919.59;5091231;28;20022;-84
2024/03/22 01:18:03;;;;;;;;;;;11.80;99.90;;;11.86;71.79;100921.88;5125577;28;19930;-84
2024/03/22 01:20:30;;;;;;;;;;;11.80;99.90;;;11.85;71.87;100912.19;5123131;28;19953;-84
2024/03/22 01:22:59;;;;;;;;;;;11.80;99.90;;;11.87;71.90;100910.16;5123668;28;19931;-84
2024/03/22 01:25:29;;;;;;;;;;;11.80;99.90;;;11.88;71.81;100901.09;5124006;28;19973;-84
2024/03/22 01:27:56;;;;;;;;;;;11.80;99.90;;;11.85;72.01;100901.50;5125591;28;19954;-83
2024/03/22 01:30:25;;;;;;;;;;;11.80;99.90;;;11.85;72.09;100896.16;5124132;28;19925;-84
2024/03/22 01:32:51;;;;;;;;;;;11.80;99.90;;;11.79;72.46;100889.75;5066663;28;20311;-84
2024/03/22 01:35:18;;;;;;;;;;;11.70;99.90;;;11.88;72.35;100885.06;5086431;28;19971;-84
2024/03/22 01:37:44;;;;;;;;;;;11.80;99.90;;;11.93;71.96;100885.25;5085205;28;19946;-84
2024/03/22 01:40:13;;;;;;;;;;;11.90;99.90;;;11.96;72.04;100889.38;5087006;28;19928;-83
2024/03/22 01:42:41;;;;;;;;;;;11.90;99.90;;;11.96;72.04;100876.81;5106857;28;19959;-84
2024/03/22 01:45:09;;;;;;;;;;;11.90;99.90;;;11.99;72.17;100878.22;5106397;28;19924;-84
2024/03/22 01:47:35;;;;;;;;;;;11.90;99.90;;;11.99;72.24;100870.22;5125681;28;20031;-84
2024/03/22 01:50:03;;;;;;;;;;;11.90;99.90;;;12.03;72.26;100868.78;5106931;28;19934;-84
2024/03/22 01:52:29;;;;;;;;;;;11.90;99.90;;;11.98;72.60;100865.91;5112778;28;19998;-83
2024/03/22 01:54:56;;;;;;;;;;;11.90;99.90;;;12.00;72.55;100863.84;5125338;28;19924;-84
2024/03/22 01:57:23;;;;;;;;;;;11.90;99.90;;;12.05;72.41;100858.66;5074021;28;19924;-84
2024/03/22 01:59:55;;;;;;;;;;;11.90;99.90;;;11.98;72.70;100848.00;5125395;28;19924;-84
2024/03/22 02:02:21;;;;;;;;;;;11.90;99.90;;;11.91;72.82;100846.38;5126171;28;19930;-84
2024/03/22 02:04:51;;;;;;;;;;;11.90;99.90;;;11.92;73.17;100840.84;5124830;28;19962;-84
2024/03/22 02:07:17;;;;;;;;;;;11.90;99.90;;;11.89;73.58;100835.91;5102924;28;19923;-84
2024/03/22 02:09:45;;;;;;;;;;;11.90;99.90;;;11.94;73.29;100835.28;5107762;28;19923;-84
2024/03/22 02:12:11;;;;;;;;;;;11.90;99.90;;;11.98;73.27;100825.81;5105548;28;19931;-83
2024/03/22 02:14:39;;;;;;;;;;;11.90;99.90;;;11.99;73.17;100827.44;5089363;28;19924;-83
2024/03/22 02:17:06;;;;;;;;;;;11.90;99.90;;;12.04;73.06;100817.75;5071531;28;19924;-83
2024/03/22 02:19:33;;;;;;;;;;;11.90;99.90;;;11.97;73.21;100818.81;5087167;28;19942;-84
2024/03/22 02:21:59;;;;;;;;;;;11.90;99.90;;;11.99;73.45;100832.78;5104248;28;20452;-84
2024/03/22 02:24:28;;;;;;;;;;;11.90;99.90;;;12.02;73.36;100816.34;5085162;28;19924;-84
2024/03/22 02:26:55;;;;;;;;;;;11.90;99.90;;;12.00;73.74;100808.50;5107677;28;19930;-84
2024/03/22 02:29:22;;;;;;;;;;;11.90;99.90;;;11.96;74.11;100803.84;5089823;28;20006;-84
2024/03/22 02:31:48;;;;;;;;;;;11.90;99.90;;;11.98;74.10;100810.59;5053980;28;19935;-83
2024/03/22 02:34:16;;;;;;;;;;;12.00;99.90;;;12.03;74.26;100805.44;5136268;27;19925;-84
2024/03/22 02:36:43;;;;;;;;;;;12.00;99.90;;;12.03;74.40;100812.63;5117848;28;20421;-84
2024/03/22 02:39:10;;;;;;;;;;;11.90;99.90;;;11.97;74.74;100802.78;5124015;28;19928;-84
2024/03/22 02:41:40;;;;;;;;;;;12.00;99.90;;;11.98;74.67;100805.25;5106576;28;19924;-84
2024/03/22 02:44:09;;;;;;;;;;;12.00;99.90;;;11.98;74.52;100802.56;5123945;28;19930;-84
2024/03/22 02:46:35;;;;;;;;;;;12.00;99.90;;;11.98;74.70;100799.91;5122181;28;19985;-84
2024/03/22 02:49:02;;;;;;;;;;;12.00;99.90;;;11.98;74.76;100793.72;5123559;28;20390;-84
2024/03/22 02:51:28;;;;;;;;;;;12.00;99.90;;;12.01;74.79;100798.66;5104790;28;19924;-84
2024/03/22 02:53:55;;;;;;;;;;;12.00;99.90;;;12.05;74.51;100786.50;5104958;28;19938;-84
2024/03/22 02:56:22;;;;;;;;;;;12.00;99.90;;;12.02;74.46;100777.06;5106593;28;19928;-84
2024/03/22 02:58:53;;;;;;;;;;;12.00;99.90;;;12.08;74.19;100780.72;5101839;28;20341;-84
2024/03/22 03:01:20;;;;;;;;;;;12.00;99.90;;;12.08;74.07;100783.41;5102065;28;19924;-84
2024/03/22 03:03:49;;;;;;;;;;;12.00;99.90;;;12.05;74.21;100771.28;5112282;28;19923;-84
2024/03/22 03:06:16;;;;;;;;;;;12.00;99.90;;;12.03;74.08;100761.84;5123518;28;20404;-84
2024/03/22 03:08:44;;;;;;;;;;;12.00;99.90;;;12.02;74.10;100762.88;5121181;28;19977;-83
2024/03/22 03:11:10;;;;;;;;;;;12.00;99.90;;;11.97;74.18;100762.69;5122229;28;19931;-84
2024/03/22 03:13:38;;;;;;;;;;;11.90;99.90;;;11.96;74.33;100758.41;5138734;27;20412;-84
2024/03/22 03:16:06;;;;;;;;;;;11.90;99.90;;;11.92;74.41;100760.66;5123844;28;20014;-84
2024/03/22 03:18:33;;;;;;;;;;;11.90;99.90;;;11.89;74.44;100758.41;5122792;28;20318;-83
2024/03/22 03:20:59;;;;;;;;;;;11.90;99.90;;;11.94;74.45;100749.75;5104616;28;19924;-84
2024/03/22 03:23:30;;;;;;;;;;;11.90;99.90;;;11.83;74.73;100745.91;5123531;28;19924;-84
2024/03/22 03:25:56;;;;;;;;;;;11.90;99.90;;;11.88;74.88;100747.94;5123835;27;19923;-84
2024/03/22 03:28:25;;;;;;;;;;;11.90;99.90;;;11.89;74.63;100757.59;5108421;28;19928;-84
2024/03/22 03:30:52;;;;;;;;;;;11.90;99.90;;;11.91;74.90;100755.50;5085799;28;20359;-84
2024/03/22 03:33:20;;;;;;;;;;;11.90;99.90;;;11.97;74.49;100760.03;5101088;28;19930;-84
2024/03/22 03:35:46;;;;;;;;;;;11.90;99.90;;;11.99;74.22;100745.41;5102557;28;19924;-84
2024/03/22 03:38:15;;;;;;;;;;;11.90;99.90;;;11.98;74.18;100748.28;5101359;28;19924;-84
2024/03/22 03:40:41;;;;;;;;;;;11.90;99.90;;;11.93;74.42;100737.44;5102393;28;19924;-84
2024/03/22 03:43:09;;;;;;;;;;;11.90;99.90;;;11.96;74.36;100727.13;5105945;28;20385;-84
2024/03/22 03:45:36;;;;;;;;;;;11.90;99.90;;;11.97;74.32;100725.28;5099783;28;19924;-84
2024/03/22 03:48:04;;;;;;;;;;;11.90;99.90;;;11.95;74.17;100735.34;5084624;28;19934;-84
2024/03/22 03:50:31;;;;;;;;;;;11.90;99.90;;;11.98;73.97;100724.25;5100883;28;19979;-84
2024/03/22 03:52:58;;;;;;;;;;;11.90;99.90;;;12.01;73.93;100721.16;5103775;28;19930;-83
2024/03/22 03:55:24;;;;;;;;;;;11.90;99.90;;;11.97;73.91;100722.59;5102897;28;19924;-83
2024/03/22 03:57:52;;;;;;;;;;;11.90;99.90;;;11.92;74.05;100709.88;5121295;28;19924;-84
2024/03/22 04:00:19;;;;;;;;;;;11.80;99.90;;;11.89;74.29;100712.16;5120782;28;19924;-84
2024/03/22 04:02:47;;;;;;;;;;;11.80;99.90;;;11.92;74.20;100711.72;5120488;28;19929;-84
2024/03/22 04:05:13;;;;;;;;;;;11.90;99.90;;;11.95;73.98;100701.41;5115854;28;19924;-84
2024/03/22 04:07:42;;;;;;;;;;;11.80;99.90;;;11.88;74.07;100689.13;5121559;28;19930;-84
2024/03/22 04:10:09;;;;;;;;;;;11.80;99.90;;;11.82;74.36;100694.31;5120774;28;20394;-84
2024/03/22 04:12:37;;;;;;;;;;;11.80;99.90;;;11.80;74.49;100669.59;5122174;28;19924;-84
2024/03/22 04:15:04;;;;;;;;;;;11.80;99.90;;;11.77;74.35;100672.72;5085627;28;19946;-84
2024/03/22 04:17:32;;;;;;;;;;;11.80;99.90;;;11.74;74.39;100659.78;5111138;28;20457;-83
2024/03/22 04:19:58;;;;;;;;;;;11.80;99.90;;;11.77;74.38;100662.03;5100284;28;20280;-84
2024/03/22 04:22:25;;;;;;;;;;;11.80;99.90;;;11.79;74.37;100654.59;5115950;28;19931;-83
2024/03/22 04:24:53;;;;;;;;;;;11.70;99.90;;;11.79;74.24;100659.13;5082731;28;19924;-84
2024/03/22 04:27:20;;;;;;;;;;;11.80;99.90;;;11.82;74.02;100664.91;5080477;28;19969;-83
2024/03/22 04:29:47;;;;;;;;;;;11.70;99.90;;;11.76;74.13;100657.72;5080894;28;19992;-83
2024/03/22 04:32:14;;;;;;;;;;;11.70;99.90;;;11.83;74.07;100663.88;5081297;28;20378;-84
2024/03/22 04:34:42;;;;;;;;;;;11.70;99.90;;;11.82;73.96;100659.56;5098988;28;19924;-84
2024/03/22 04:37:11;;;;;;;;;;;11.70;99.90;;;11.77;73.77;100654.00;5080989;28;19931;-84
2024/03/22 04:39:40;;;;;;;;;;;11.70;99.90;;;11.71;74.14;100644.19;5063515;28;19931;-83
2024/03/22 04:42:08;;;;;;;;;;;11.70;99.90;;;11.69;74.30;100646.25;5046005;28;20357;-83
2024/03/22 04:44:36;;;;;;;;;;;11.70;99.90;;;11.71;74.41;100649.53;5078477;28;19951;-84
2024/03/22 04:47:03;;;;;;;;;;;11.60;99.90;;;11.62;74.41;100640.13;5078254;28;19931;-84
2024/03/22 04:49:29;;;;;;;;;;;11.60;99.90;;;11.66;74.29;100641.31;5091114;28;19924;-84
2024/03/22 04:51:56;;;;;;;;;;;11.60;99.90;;;11.73;74.09;100647.47;5108967;28;19969;-84
2024/03/22 04:54:22;;;;;;;;;;;11.60;99.90;;;11.77;74.28;100637.16;5102011;28;20016;-84
2024/03/22 04:56:51;;;;;;;;;;;11.70;99.90;;;11.78;73.74;100639.63;5083531;28;19991;-84
2024/03/22 04:59:18;;;;;;;;;;;11.70;99.90;;;11.78;73.75;100630.78;5101130;28;20405;-84
2024/03/22 05:01:45;;;;;;;;;;;11.70;99.90;;;11.73;74.01;100631.44;5098795;28;19973;-84
2024/03/22 05:04:12;;;;;;;;;;;11.70;99.90;;;11.71;74.04;100627.31;5114878;28;19928;-83
2024/03/22 05:06:39;;;;;;;;;;;11.70;99.90;;;11.69;74.36;100629.41;5120713;28;19924;-84
2024/03/22 05:09:05;;;;;;;;;;;11.70;99.90;;;11.73;73.96;100625.28;5068791;28;19931;-84
2024/03/22 05:11:33;;;;;;;;;;;11.70;99.90;;;11.78;73.87;100630.78;5119708;28;20298;-84
2024/03/22 05:13:59;;;;;;;;;;;11.70;99.90;;;11.84;73.70;100628.09;5117519;28;19946;-82
2024/03/22 05:16:28;;;;;;;;;;;11.70;99.90;;;11.83;73.54;100626.47;5117867;28;20022;-81
2024/03/22 05:18:54;;;;;;;;;;;11.70;99.90;;;11.88;73.41;100616.97;5117119;28;19928;-81
2024/03/22 05:21:21;;;;;;;;;;;11.80;99.90;;;11.91;73.19;100611.19;5115909;28;19923;-81
2024/03/22 05:23:48;;;;;;;;;;;11.80;99.90;;;11.90;73.27;100609.56;5115484;28;20497;-81
2024/03/22 05:26:15;;;;;;;;;;;11.80;99.90;;;11.89;73.25;100618.63;5097037;28;20460;-81
2024/03/22 05:28:41;;;;;;;;;;;11.80;99.90;;;11.86;73.06;100617.22;5099161;28;20454;-81
2024/03/22 05:31:08;;;;;;;;;;;11.80;99.90;;;11.75;73.59;100624.00;5090701;28;20011;-81
2024/03/22 05:33:36;;;;;;;;;;;11.70;99.90;;;11.82;73.42;100629.34;5117222;28;19927;-80
2024/03/22 05:36:03;;;;;;;;;;;11.70;99.90;;;11.88;73.53;100630.34;5118264;28;19924;-82
2024/03/22 05:38:29;;;;;;;;;;;11.70;99.90;;;11.86;73.11;100625.22;5100817;28;20010;-81
2024/03/22 05:40:58;;;;;;;;;;;11.70;99.90;;;11.83;73.39;100623.78;5101449;28;19970;-81
2024/03/22 05:43:24;;;;;;;;;;;11.70;99.90;;;11.90;72.99;100628.25;5116209;28;20295;-81
2024/03/22 05:45:51;;;;;;;;;;;11.80;99.90;;;11.91;72.75;100619.19;5105019;28;19932;-80
2024/03/22 05:48:17;;;;;;;;;;;11.80;99.90;;;11.84;73.32;100614.72;5070230;28;19924;-83
2024/03/22 05:50:46;;;;;;;;;;;11.80;99.90;;;11.85;73.09;100624.38;5104137;28;19935;-83
2024/03/22 05:53:12;;;;;;;;;;;11.80;99.90;;;11.92;73.06;100620.88;5096845;28;20379;-82
2024/03/22 05:55:39;;;;;;;;;;;11.80;99.90;;;11.88;73.26;100608.97;5097313;28;19978;-83
2024/03/22 05:58:05;;;;;;;;;;;11.80;99.90;;;11.93;72.99;100601.13;5105185;28;20362;-83
2024/03/22 06:00:33;;;;;;;;;;;11.90;99.90;;;11.91;73.03;100606.69;5122342;28;19963;-83
2024/03/22 06:02:59;;;;;;;;;;;11.90;99.90;;;11.91;72.97;100608.50;5074182;28;19962;-83
2024/03/22 06:05:26;;;;;;;;;;;11.90;99.90;;;11.90;73.29;100597.00;5118456;28;19923;-83
2024/03/22 06:07:54;;;;;;;;;;;11.90;99.90;;;11.90;72.83;100598.88;5116585;28;19924;-83
2024/03/22 06:10:22;;;;;;;;;;;11.90;99.90;;;11.91;72.68;100596.00;5099747;28;19924;-83
2024/03/22 06:12:49;;;;;;;;;;;11.80;99.90;;;11.89;72.86;100590.03;5107180;28;20362;-83
2024/03/22 06:15:15;;;;;;;;;;;11.90;99.90;;;11.85;73.10;100592.31;5120905;28;19923;-83
2024/03/22 06:17:43;;;;;;;;;;;11.90;99.90;;;11.88;72.64;100596.41;5121872;28;19973;-83
2024/03/22 06:20:12;;;;;;;;;;;11.90;99.90;;;11.80;73.08;100594.78;5119470;28;19924;-83
2024/03/22 06:22:40;;;;;;;;;;;11.90;99.90;;;11.85;73.10;100597.66;5120055;28;19930;-83
2024/03/22 06:25:08;;;;;;;;;;;11.90;99.90;;;11.87;72.98;100597.47;5118149;28;20018;-83
2024/03/22 06:27:35;;;;;;;;;;;11.90;99.90;;;11.85;73.03;100591.50;5093886;28;19969;-83
2024/03/22 06:30:03;;;;;;;;;;;11.90;99.90;;;11.90;72.87;100583.63;5107983;28;20023;-83
2024/03/22 06:32:30;;;;;;;;;;;12.00;99.90;;;11.93;72.96;100585.88;5089405;28;19924;-83
2024/03/22 06:34:57;;;;;;;;;;;12.00;99.90;;;11.95;73.01;100588.34;5099092;28;19931;-82
2024/03/22 06:37:24;;;;;;;;;;;12.00;99.90;;;11.96;73.16;100590.00;5112038;28;19937;-83
2024/03/22 06:39:50;;;;;;;;;;;12.00;99.90;;;12.02;73.21;100587.25;5113512;28;19924;-84
2024/03/22 06:42:19;;;;;;;;;;;12.10;99.90;;;12.01;73.46;100580.28;5084497;28;19924;-83
2024/03/22 06:44:45;;;;;;;;;;;12.10;99.90;;;12.04;72.97;100579.03;5101706;28;19969;-83
2024/03/22 06:47:13;;;;;;;;;;;12.10;99.90;;;12.00;73.01;100572.47;5102026;28;19986;-82
2024/03/22 06:49:40;;;;;;;;;;;12.10;99.90;;;12.01;72.77;100574.13;5087305;28;19924;-83
2024/03/22 06:52:07;;;;;;;;;;;12.10;99.90;;;12.03;72.87;100570.19;5086271;28;19923;-83
2024/03/22 06:54:33;;;;;;;;;;;12.10;99.90;;;12.08;72.81;100574.88;5121672;28;19927;-83
2024/03/22 06:57:01;;;;;;;;;;;12.20;99.90;;;12.13;72.88;100564.34;5121668;28;20439;-82
2024/03/22 06:59:29;;;;;;;;;;;12.20;99.90;;;12.09;73.00;100565.81;5096659;28;19960;-83
2024/03/22 07:01:56;;;;;;;;;;;12.20;99.90;;;12.09;72.76;100576.50;5101169;28;19925;-83
2024/03/22 07:04:23;;;;;;;;;;;12.20;99.90;;;12.15;72.92;100564.13;5067317;28;19946;-83
2024/03/22 07:06:50;;;;;;;;;;;12.20;99.90;;;12.16;73.05;100577.28;5100311;28;20334;-83
2024/03/22 07:09:16;;;;;;;;;;;12.20;99.90;;;12.22;73.35;100572.91;5101282;28;19928;-83
2024/03/22 07:11:43;;;;;;;;;;;12.30;99.90;;;12.26;72.93;100574.94;5081142;28;19931;-83
2024/03/22 07:14:12;;;;;;;;;;;12.30;99.90;;;12.26;73.09;100568.78;5064371;28;19928;-82
2024/03/22 07:16:41;;;;;;;;;;;12.40;99.90;;;12.29;72.99;100569.13;5065202;28;20310;-83
2024/03/22 07:19:07;;;;;;;;;;;12.40;99.90;;;12.36;72.90;100571.75;5086295;28;19932;-83
2024/03/22 07:21:35;;;;;;;;;;;12.50;99.90;;;12.45;73.09;100569.63;5111769;28;20018;-83
2024/03/22 07:24:01;;;;;;;;;;;12.50;99.90;;;12.51;72.76;100574.09;5107729;28;20003;-81
2024/03/22 07:26:29;;;;;;;;;;;12.70;99.90;;;12.56;72.56;100579.59;5060164;28;19924;-81
2024/03/22 07:28:55;;;;;;;;;;;12.70;99.90;;;12.61;72.58;100583.22;5059722;28;19947;-80
2024/03/22 07:31:22;;;;;;;;;;;12.80;99.90;;;12.66;72.60;100574.53;5088471;28;19963;-80
2024/03/22 07:33:50;;;;;;;;;;;12.80;99.90;;;12.68;72.45;100577.78;5117828;28;20006;-80
2024/03/22 07:36:17;;;;;;;;;;;12.90;99.90;;;12.77;72.31;100581.00;5117857;28;20399;-80
2024/03/22 07:38:43;;;;;;;;;;;12.90;99.90;;;12.81;72.53;100574.16;5111821;28;20026;-80
2024/03/22 07:41:11;;;;;;;;;;;13.00;99.90;;;12.84;72.12;100566.53;5118139;28;19930;-80
2024/03/22 07:43:37;;;;;;;;;;;13.00;99.90;;;12.88;72.04;100566.88;5079657;28;19967;-80
2024/03/22 07:46:04;;;;;;;;;;;13.10;99.90;;;12.94;72.23;100567.84;5075017;28;19924;-81
2024/03/22 07:48:33;;;;;;;;;;;13.10;99.90;;;12.95;72.62;100558.78;5017974;28;19932;-82
2024/03/22 07:51:03;;;;;;;;;;;13.10;99.90;;;12.92;71.38;100553.84;5038337;28;20571;-82
2024/03/22 07:53:29;;;;;;;;;;;13.10;99.90;;;12.95;71.84;100556.09;5054370;28;20472;-82
2024/03/22 07:55:56;;;;;;;;;;;13.10;99.90;;;12.98;72.22;100559.16;5038168;28;19925;-80
2024/03/22 07:58:23;;;;;;;;;;;13.20;99.90;;;12.97;71.40;100556.69;5063263;28;20015;-80
2024/03/22 08:00:50;;;;;;;;;;;13.20;99.90;;;13.00;71.74;100549.03;5057761;28;20002;-82
2024/03/22 08:03:16;;;;;;;;;;;13.20;99.90;;;13.03;71.36;100555.78;5074501;28;19924;-81
2024/03/22 08:05:44;;;;;;;;;;;13.20;99.90;;;13.07;71.28;100554.28;5041203;28;19948;-81
2024/03/22 08:08:12;;;;;;;;;;;13.30;99.90;;;13.11;70.95;100560.84;5053997;28;20445;-80
2024/03/22 08:10:40;;;;;;;;;;;13.30;99.90;;;13.14;70.12;100568.44;5053730;28;19924;-80
2024/03/22 08:13:06;;;;;;;;;;;13.30;99.90;;;13.17;70.97;100564.47;5053998;28;20004;-80
2024/03/22 08:15:33;;;;;;;;;;;13.40;99.90;;;13.23;70.47;100571.66;5066600;28;20362;-80
2024/03/22 08:17:59;;;;;;;;;;;13.40;99.90;;;13.25;70.10;100562.31;5090527;28;19924;-80
2024/03/22 08:20:28;;;;;;;;;;;13.50;99.90;;;13.28;69.60;100567.25;5116590;28;19923;-80
2024/03/22 08:22:54;;;;;;;;;;;13.50;99.90;;;13.38;69.66;100569.38;5081177;28;19934;-81
2024/03/22 08:25:24;;;;;;;;;;;13.60;99.90;;;13.46;68.93;100566.34;5114930;28;20022;-81
2024/03/22 08:27:55;;;;;;;;;;;13.70;99.90;;;13.49;69.12;100562.44;5097759;28;19955;-81
2024/03/22 08:30:22;;;;;;;;;;;13.80;99.90;;;13.46;68.50;100555.66;5078762;28;20399;-81
2024/03/22 08:32:48;;;;;;;;;;;13.70;99.90;;;13.40;68.19;100551.19;5096892;28;19969;-83
2024/03/22 08:35:16;;;;;;;;;;;13.70;99.90;;;13.42;68.10;100559.84;5080385;28;19928;-83
2024/03/22 08:37:42;;;;;;;;;;;13.70;99.90;;;13.44;68.88;100552.38;5097062;28;19924;-85
2024/03/22 08:40:11;;;;;;;;;;;13.70;99.90;;;13.47;68.38;100545.75;5096997;28;19924;-85
2024/03/22 08:42:39;;;;;;;;;;;13.60;99.90;;;13.45;68.12;100545.97;5096029;28;19973;-82
2024/03/22 08:45:10;;;;;;;;;;;13.70;99.90;;;13.46;68.07;100549.47;5096303;28;19969;-82
2024/03/22 08:47:36;;;;;;;;;;;13.70;99.90;;;13.48;67.32;100545.53;5099249;28;19949;-82
2024/03/22 08:50:03;;;;;;;;;;;13.70;99.90;;;13.49;67.13;100536.44;5107959;28;20023;-82
2024/03/22 08:52:31;;;;;;;;;;;13.70;99.90;;;13.52;67.10;100543.22;5078978;28;20391;-82
2024/03/22 08:54:58;;;;;;;;;;;13.70;99.90;;;13.52;66.91;100545.91;5095281;28;19924;-83
2024/03/22 08:57:26;;;;;;;;;;;13.70;99.90;;;13.53;66.47;100532.25;5098468;28;19935;-82
2024/03/22 08:59:55;;;;;;;;;;;13.80;99.90;;;13.55;65.25;100538.19;5079594;28;20015;-83
2024/03/22 09:02:21;;;;;;;;;;;13.80;99.90;;;13.58;64.78;100547.66;5095506;28;20387;-83
2024/03/22 09:04:49;;;;;;;;;;;13.80;99.90;;;13.58;63.85;100540.44;5095295;28;20023;-83
2024/03/22 09:07:15;;;;;;;;;;;13.80;99.90;;;13.60;63.88;100535.66;5109165;28;19924;-83
2024/03/22 09:09:43;;;;;;;;;;;13.90;99.90;;;13.62;63.63;100535.44;5104866;28;20006;-82
2024/03/22 09:12:09;;;;;;;;;;;13.90;99.90;;;13.65;64.04;100535.78;5099074;28;19974;-83
2024/03/22 09:14:37;;;;;;;;;;;13.90;99.90;;;13.73;64.05;100528.47;5114133;28;19934;-83
2024/03/22 09:17:07;;;;;;;;;;;13.90;99.90;;;13.79;64.18;100533.72;5098176;28;19927;-83
2024/03/22 09:19:33;;;;;;;;;;;14.00;99.90;;;13.80;62.95;100521.13;5113693;28;19946;-83
2024/03/22 09:22:00;;;;;;;;;;;14.00;99.90;;;13.81;63.99;100515.56;5110308;28;19931;-83
2024/03/22 09:24:28;;;;;;;;;;;14.10;99.90;;;13.88;63.75;100518.91;5116553;28;19928;-83
2024/03/22 09:26:55;;;;;;;;;;;14.10;99.90;;;14.00;63.62;100518.91;5110028;28;19974;-83
2024/03/22 09:29:21;;;;;;;;;;;14.30;99.90;;;14.13;62.80;100509.84;5094311;28;20302;-83
2024/03/22 09:31:50;;;;;;;;;;;14.40;99.90;;;14.19;62.72;100511.56;5093856;28;19928;-83
2024/03/22 09:34:19;;;;;;;;;;;14.40;99.90;;;14.23;62.08;100514.63;5097501;28;19931;-83
2024/03/22 09:36:51;;;;;;;;;;;14.50;99.90;;;14.32;63.87;100518.59;5097650;28;20064;-83
2024/03/22 09:39:17;;;;;;;;;;;14.60;99.90;;;14.40;62.24;100505.63;5097322;28;19923;-83
2024/03/22 09:41:45;;;;;;;;;;;14.70;99.90;;;14.48;62.99;100509.03;5099439;28;19930;-83
2024/03/22 09:44:13;;;;;;;;;;;14.80;99.90;;;14.52;61.86;100502.13;5081326;28;19924;-83
2024/03/22 09:46:41;;;;;;;;;;;14.80;99.90;;;14.53;62.17;100501.06;5097315;28;19950;-83
2024/03/22 09:49:08;;;;;;;;;;;14.80;99.90;;;14.48;61.67;100493.72;5099226;28;19924;-83
2024/03/22 09:51:37;;;;;;;;;;;14.80;99.90;;;14.41;61.17;100495.72;5100312;28;19967;-83
2024/03/22 09:54:03;;;;;;;;;;;14.70;99.90;;;14.30;60.96;100494.69;5120993;27;19924;-83
2024/03/22 09:56:32;;;;;;;;;;;14.60;99.90;;;14.24;60.47;100492.91;5118552;28;19923;-82
2024/03/22 09:58:58;;;;;;;;;;;14.50;99.90;;;14.25;62.27;100491.88;5118692;28;19955;-83
2024/03/22 10:01:26;;;;;;;;;;;14.50;99.90;;;14.28;62.81;100496.75;5118594;28;19935;-83
2024/03/22 10:03:52;;;;;;;;;;;14.50;99.90;;;14.26;62.30;100490.84;5152031;27;19963;-83
2024/03/22 10:06:21;;;;;;;;;;;14.50;99.90;;;14.26;62.14;100490.84;5100966;28;19924;-82
2024/03/22 10:08:49;;;;;;;;;;;14.50;99.90;;;14.26;62.13;100480.09;5118914;28;19930;-83
2024/03/22 10:11:16;;;;;;;;;;;14.50;99.90;;;14.29;62.78;100473.44;5100923;28;19934;-83
2024/03/22 10:13:42;;;;;;;;;;;14.50;99.90;;;14.35;63.47;100467.97;5117233;28;19924;-83
2024/03/22 10:16:10;;;;;;;;;;;14.60;99.90;;;14.39;62.53;100465.59;5118622;28;19924;-83
2024/03/22 10:18:38;;;;;;;;;;;14.60;99.90;;;14.41;63.24;100460.81;5117478;28;19924;-83
2024/03/22 10:21:05;;;;;;;;;;;14.60;99.90;;;14.47;63.21;100459.06;5117460;28;20010;-83
2024/03/22 10:23:33;;;;;;;;;;;14.70;99.90;;;14.52;62.96;100457.31;5118521;28;19926;-85
2024/03/22 10:26:02;;;;;;;;;;;14.80;99.90;;;14.51;61.77;100449.53;5118177;28;19923;-84
2024/03/22 10:28:29;;;;;;;;;;;14.80;99.90;;;14.42;61.94;100460.59;5119237;28;19923;-83
2024/03/22 10:30:55;;;;;;;;;;;14.70;99.90;;;14.49;63.11;100443.56;5114367;28;20402;-83
2024/03/22 10:33:23;;;;;;;;;;;14.80;99.90;;;14.43;61.08;100446.09;5099825;28;20330;-83
2024/03/22 10:35:51;;;;;;;;;;;14.70;99.90;;;14.40;61.53;100449.28;5097182;28;19971;-83
2024/03/22 10:38:19;;;;;;;;;;;14.70;99.90;;;14.45;62.63;100439.72;5096835;28;19970;-82
2024/03/22 10:40:46;;;;;;;;;;;14.70;99.90;;;14.47;62.52;100449.13;5098062;28;19924;-82
2024/03/22 10:43:15;;;;;;;;;;;14.70;99.90;;;14.46;61.77;100442.16;5112768;28;19924;-83
2024/03/22 10:45:42;;;;;;;;;;;14.70;99.90;;;14.53;64.05;100444.72;5097051;28;19932;-83
2024/03/22 10:48:10;;;;;;;;;;;14.80;99.90;;;14.51;61.81;100442.28;5097306;28;19924;-83
2024/03/22 10:50:39;;;;;;;;;;;14.80;99.90;;;14.53;62.67;100439.34;5097173;28;19924;-82
2024/03/22 10:53:08;;;;;;;;;;;14.70;99.90;;;14.54;62.62;100435.59;5099927;28;19928;-82
2024/03/22 10:55:38;;;;;;;;;;;14.80;99.90;;;14.55;62.64;100421.16;5097108;28;19928;-82
2024/03/22 10:58:05;;;;;;;;;;;14.80;99.90;;;14.57;62.46;100425.22;5097664;28;19964;-82
2024/03/22 11:00:35;;;;;;;;;;;14.80;99.90;;;14.56;61.17;100415.53;5098798;28;20411;-83
2024/03/22 11:03:03;;;;;;;;;;;14.90;99.90;;;14.62;61.95;100416.44;5081097;28;19930;-82
2024/03/22 11:05:30;;;;;;;;;;;14.90;99.90;;;14.69;61.73;100417.16;5097968;28;20327;-83
2024/03/22 11:08:01;;;;;;;;;;;14.90;99.90;;;14.72;61.29;100413.97;5079761;28;19994;-82
2024/03/22 11:10:30;;;;;;;;;;;15.00;99.90;;;14.76;61.00;100412.44;5097919;28;19924;-82